Time;durP1;ratioP1;P1;durP2;ratioP2;P2;SDS_P1;SDS_P2;PMS_P1;PMS_P2;Temp;Humidity;BMP_temperature;BMP_pressure;BME280_temperature;BME280_humidity;BME280_pressure;Samples;Min_cycle;Max_cycle;Signal;HPM_P1;HPM_P2
2022/07/26 00:00:13;;;;;;;4.68;1.80;;;19.90;33.00;;;;;;5033654;28;20383;-77
2022/07/26 00:02:39;;;;;;;5.75;2.40;;;20.00;32.70;;;;;;5034331;28;20864;-76
2022/07/26 00:05:06;;;;;;;7.38;2.70;;;20.00;33.00;;;;;;5034623;28;20429;-77
2022/07/26 00:07:31;;;;;;;7.35;2.00;;;19.90;33.70;;;;;;5035437;28;20879;-77
2022/07/26 00:09:57;;;;;;;4.60;2.50;;;19.80;34.00;;;;;;5036202;28;20390;-77
2022/07/26 00:12:22;;;;;;;9.82;2.85;;;19.80;34.10;;;;;;5035691;28;20387;-76
2022/07/26 00:14:48;;;;;;;8.40;3.00;;;19.80;34.80;;;;;;5035385;28;20394;-77
2022/07/26 00:17:14;;;;;;;7.70;2.77;;;19.80;35.00;;;;;;5035874;28;20389;-77
2022/07/26 00:19:39;;;;;;;6.33;2.70;;;19.60;35.60;;;;;;5036453;28;20391;-77
2022/07/26 00:24:49;;;;;;;6.50;2.60;;;19.60;36.50;;;;;;5037253;28;20972;-77
2022/07/26 00:27:14;;;;;;;7.70;2.63;;;19.50;37.20;;;;;;5042013;28;20427;-76
2022/07/26 00:29:40;;;;;;;5.90;2.30;;;19.40;37.50;;;;;;5042154;28;20752;-76
2022/07/26 00:32:05;;;;;;;5.78;2.50;;;19.30;38.30;;;;;;5043216;28;20386;-75
2022/07/26 00:34:31;;;;;;;6.72;2.47;;;19.30;38.60;;;;;;5048159;28;20386;-75
2022/07/26 00:36:57;;;;;;;6.40;2.33;;;19.20;39.00;;;;;;5057649;28;20407;-76
2022/07/26 00:39:23;;;;;;;6.60;2.60;;;19.10;39.30;;;;;;5056784;28;20401;-75
2022/07/26 00:41:49;;;;;;;4.93;1.80;;;19.20;39.30;;;;;;5057380;28;20438;-75
2022/07/26 00:44:14;;;;;;;3.47;2.03;;;19.10;40.40;;;;;;5052732;28;20474;-76
2022/07/26 00:46:42;;;;;;;3.87;1.90;;;19.10;40.50;;;;;;5043949;28;20916;-75
2022/07/26 00:49:07;;;;;;;5.87;1.83;;;19.10;40.60;;;;;;5023135;28;20760;-76
2022/07/26 00:51:33;;;;;;;5.97;2.00;;;19.10;40.60;;;;;;5037587;28;20395;-76
2022/07/26 00:54:03;;;;;;;10.30;2.30;;;19.10;41.00;;;;;;5036376;28;20486;-77
2022/07/26 00:56:30;;;;;;;6.95;2.50;;;19.00;41.50;;;;;;5037366;28;20394;-76
2022/07/26 00:58:56;;;;;;;9.98;2.40;;;18.90;42.60;;;;;;5035799;28;20478;-75
2022/07/26 01:01:22;;;;;;;5.00;1.97;;;18.90;42.70;;;;;;5037132;28;20427;-76
2022/07/26 01:03:51;;;;;;;7.17;2.00;;;18.80;43.60;;;;;;5039688;28;20387;-76
2022/07/26 01:06:17;;;;;;;7.05;2.13;;;18.90;43.50;;;;;;5037283;28;20407;-76
2022/07/26 01:08:43;;;;;;;9.50;2.60;;;18.90;42.70;;;;;;5039877;28;20725;-77
2022/07/26 01:11:08;;;;;;;8.75;2.22;;;19.00;42.00;;;;;;5039881;28;20441;-76
2022/07/26 01:13:34;;;;;;;5.63;2.10;;;19.10;41.60;;;;;;5041460;28;20391;-76
2022/07/26 01:16:00;;;;;;;5.63;2.00;;;19.10;41.20;;;;;;5039895;28;20740;-76
2022/07/26 01:18:25;;;;;;;6.47;1.88;;;19.20;41.30;;;;;;5034585;28;20392;-77
2022/07/26 01:20:53;;;;;;;4.85;1.90;;;19.30;40.30;;;;;;5034294;28;20390;-76
2022/07/26 01:23:19;;;;;;;7.78;2.20;;;19.30;39.50;;;;;;5035391;28;20398;-76
2022/07/26 01:25:45;;;;;;;6.20;1.98;;;19.40;39.10;;;;;;5034016;28;20776;-76
2022/07/26 01:28:10;;;;;;;8.07;1.80;;;19.50;38.70;;;;;;5033751;28;20471;-76
2022/07/26 01:30:36;;;;;;;7.70;2.03;;;19.40;38.70;;;;;;5033917;28;20496;-77
2022/07/26 01:33:02;;;;;;;6.60;2.50;;;19.40;38.70;;;;;;5033453;28;20395;-75
2022/07/26 01:35:27;;;;;;;8.85;2.38;;;19.40;38.80;;;;;;5033414;28;20393;-77
2022/07/26 01:37:53;;;;;;;5.60;2.27;;;19.40;39.10;;;;;;5033839;28;20886;-76
2022/07/26 01:40:18;;;;;;;10.60;2.40;;;19.40;38.80;;;;;;5035038;28;20435;-77
2022/07/26 01:42:44;;;;;;;7.53;2.30;;;19.30;39.30;;;;;;5033691;28;20463;-77
2022/07/26 01:45:11;;;;;;;9.87;2.30;;;19.30;40.00;;;;;;5034026;28;20434;-76
2022/07/26 01:47:37;;;;;;;8.43;2.20;;;19.20;40.40;;;;;;5032834;28;20951;-76
2022/07/26 01:50:04;;;;;;;5.88;1.90;;;19.20;40.70;;;;;;5032811;28;20383;-75
2022/07/26 01:52:30;;;;;;;6.18;1.95;;;19.30;40.50;;;;;;5056858;22;20441;-75
2022/07/26 01:54:55;;;;;;;6.18;2.00;;;19.30;40.40;;;;;;5053369;28;20741;-75
2022/07/26 01:57:21;;;;;;;6.23;2.10;;;19.30;40.20;;;;;;5054771;28;20385;-75
2022/07/26 01:59:47;;;;;;;5.87;2.30;;;19.30;40.50;;;;;;5058331;28;20378;-76
2022/07/26 02:02:12;;;;;;;7.60;1.85;;;19.30;40.50;;;;;;5052424;28;20741;-75
2022/07/26 02:07:22;;;;;;;6.70;2.23;;;19.50;39.50;;;;;;5052728;28;20400;-76
2022/07/26 02:09:47;;;;;;;7.30;2.17;;;19.50;39.20;;;;;;5052701;28;20817;-75
2022/07/26 02:12:13;;;;;;;7.40;2.30;;;19.50;39.70;;;;;;5052268;28;20373;-74
2022/07/26 02:14:38;;;;;;;9.67;2.03;;;19.50;40.10;;;;;;5052775;28;20861;-74
2022/07/26 02:17:04;;;;;;;6.00;3.57;;;19.40;39.70;;;;;;5053074;28;20873;-75
2022/07/26 02:19:30;;;;;;;7.35;2.38;;;19.50;39.80;;;;;;5052953;28;20750;-74
2022/07/26 02:21:56;;;;;;;9.73;2.28;;;19.40;40.00;;;;;;5052776;28;20377;-75
2022/07/26 02:24:22;;;;;;;7.05;2.65;;;19.40;40.40;;;;;;5052399;28;20385;-72
2022/07/26 02:26:48;;;;;;;12.33;2.50;;;19.40;41.30;;;;;;5053570;28;20481;-75
2022/07/26 02:29:13;;;;;;;6.80;2.30;;;19.50;41.30;;;;;;5053389;28;20424;-76
2022/07/26 02:31:39;;;;;;;6.35;2.60;;;19.40;40.70;;;;;;5053277;28;20385;-77
2022/07/26 02:34:04;;;;;;;8.43;2.53;;;19.40;40.60;;;;;;5053005;28;20405;-76
2022/07/26 02:36:30;;;;;;;12.20;2.90;;;19.50;40.90;;;;;;5053575;28;20935;-74
2022/07/26 02:38:55;;;;;;;9.48;2.90;;;19.40;41.50;;;;;;5054859;28;20448;-76
2022/07/26 02:41:21;;;;;;;6.93;2.37;;;19.40;41.60;;;;;;5053350;28;20392;-76
2022/07/26 02:43:47;;;;;;;5.53;2.10;;;19.30;42.40;;;;;;5051585;28;20382;-74
2022/07/26 02:46:12;;;;;;;12.43;2.42;;;19.30;43.30;;;;;;5053314;28;20402;-73
2022/07/26 02:48:38;;;;;;;7.33;2.40;;;19.30;42.70;;;;;;5053793;28;20896;-74
2022/07/26 02:51:03;;;;;;;8.23;3.40;;;19.20;43.50;;;;;;5052684;28;20369;-75
2022/07/26 02:53:29;;;;;;;9.65;2.53;;;19.10;44.40;;;;;;5050816;28;20448;-74
2022/07/26 02:55:54;;;;;;;6.17;2.60;;;19.10;45.20;;;;;;5052875;28;20403;-74
2022/07/26 02:58:20;;;;;;;15.77;2.60;;;19.00;46.10;;;;;;5052683;28;20738;-73
2022/07/26 03:00:46;;;;;;;6.82;2.53;;;19.00;46.20;;;;;;5052506;28;20381;-73
2022/07/26 03:03:13;;;;;;;7.07;2.70;;;19.00;46.50;;;;;;5050721;28;20389;-74
2022/07/26 03:05:38;;;;;;;9.05;2.70;;;19.00;46.80;;;;;;5052028;28;20519;-75
2022/07/26 03:08:05;;;;;;;7.90;2.60;;;19.00;47.10;;;;;;5052082;28;20460;-75
2022/07/26 03:10:30;;;;;;;7.93;2.58;;;19.10;46.40;;;;;;5051518;28;20473;-72
2022/07/26 03:12:56;;;;;;;7.22;2.00;;;19.10;46.30;;;;;;5051629;28;20454;-74
2022/07/26 03:15:22;;;;;;;6.30;2.33;;;19.10;46.60;;;;;;5051774;28;20393;-73
2022/07/26 03:17:48;;;;;;;6.20;2.30;;;18.90;47.70;;;;;;5052026;28;20392;-73
2022/07/26 03:20:14;;;;;;;10.65;2.60;;;18.90;48.00;;;;;;5052528;28;20381;-73
2022/07/26 03:22:40;;;;;;;6.20;2.30;;;18.90;49.10;;;;;;5052043;28;20393;-74
2022/07/26 03:25:05;;;;;;;10.73;2.87;;;18.90;49.80;;;;;;5051768;28;20397;-73
2022/07/26 03:27:31;;;;;;;14.50;2.83;;;18.90;49.30;;;;;;5052264;28;20409;-73
2022/07/26 03:29:57;;;;;;;9.73;2.83;;;18.80;50.50;;;;;;5051055;28;20395;-75
2022/07/26 03:32:23;;;;;;;7.47;2.75;;;18.80;50.90;;;;;;5051688;28;20463;-74
2022/07/26 03:34:48;;;;;;;11.45;2.80;;;18.80;51.60;;;;;;5053368;28;20728;-74
2022/07/26 03:37:14;;;;;;;8.70;2.60;;;18.70;52.30;;;;;;5055456;28;20404;-75
2022/07/26 03:39:39;;;;;;;10.43;3.00;;;18.70;52.90;;;;;;5056583;28;20405;-75
2022/07/26 03:42:05;;;;;;;12.98;2.90;;;18.70;53.50;;;;;;5055239;28;20385;-73
2022/07/26 03:44:30;;;;;;;5.75;2.70;;;18.80;53.40;;;;;;5055468;28;20409;-73
2022/07/26 03:46:56;;;;;;;11.80;3.77;;;18.70;53.90;;;;;;5054073;28;20397;-74
2022/07/26 03:49:22;;;;;;;10.93;3.17;;;18.70;54.30;;;;;;5055117;28;20403;-73
2022/07/26 03:51:47;;;;;;;11.52;3.03;;;18.80;54.80;;;;;;5054966;28;20397;-75
2022/07/26 03:54:13;;;;;;;11.33;2.97;;;18.80;53.80;;;;;;5055105;28;20382;-74
2022/07/26 03:56:39;;;;;;;8.07;2.60;;;18.80;53.50;;;;;;5054947;28;20412;-74
2022/07/26 03:59:07;;;;;;;16.73;2.90;;;18.80;53.60;;;;;;5055711;28;20385;-74
2022/07/26 04:01:34;;;;;;;14.15;2.80;;;18.70;54.50;;;;;;5059747;28;20389;-74
2022/07/26 04:04:00;;;;;;;6.20;2.88;;;18.70;55.20;;;;;;5057934;28;20452;-74
2022/07/26 04:06:26;;;;;;;10.43;3.67;;;18.70;55.50;;;;;;5058237;28;20448;-74
2022/07/26 04:08:52;;;;;;;11.87;3.30;;;18.60;55.70;;;;;;5056437;28;20382;-75
2022/07/26 04:11:17;;;;;;;8.68;2.50;;;18.70;55.30;;;;;;5056271;28;20385;-75
2022/07/26 04:13:43;;;;;;;7.73;2.83;;;18.70;55.10;;;;;;5054690;28;20392;-74
2022/07/26 04:16:09;;;;;;;8.57;2.80;;;18.80;55.00;;;;;;5054685;28;20386;-73
2022/07/26 04:18:34;;;;;;;9.80;2.90;;;18.80;55.20;;;;;;5058121;28;20450;-76
2022/07/26 04:21:00;;;;;;;14.13;3.25;;;18.70;55.90;;;;;;5057770;28;20381;-73
2022/07/26 04:23:25;;;;;;;14.00;3.10;;;18.60;56.90;;;;;;5051975;28;20393;-75
2022/07/26 04:25:51;;;;;;;9.77;3.10;;;18.60;57.70;;;;;;5051444;28;20484;-73
2022/07/26 04:28:17;;;;;;;10.00;3.10;;;18.60;57.10;;;;;;5053661;28;20377;-75
2022/07/26 04:30:43;;;;;;;18.95;3.70;;;18.60;57.20;;;;;;5062842;28;20755;-74
2022/07/26 04:33:08;;;;;;;11.07;3.40;;;18.60;56.80;;;;;;5060962;28;20439;-75
2022/07/26 04:35:35;;;;;;;12.13;3.50;;;18.60;57.80;;;;;;5062301;28;20470;-75
2022/07/26 04:38:01;;;;;;;14.20;3.92;;;18.60;58.00;;;;;;5063306;28;20386;-77
2022/07/26 04:40:27;;;;;;;14.65;3.40;;;18.60;59.00;;;;;;5054625;28;20392;-75
2022/07/26 04:42:53;;;;;;;10.60;3.28;;;18.60;59.20;;;;;;5053047;28;20395;-75
2022/07/26 04:45:19;;;;;;;12.20;3.17;;;18.50;60.50;;;;;;5051741;28;20480;-75
2022/07/26 04:47:49;;;;;;;15.52;3.70;;;18.60;59.60;;;;;;5054642;28;20413;-74
2022/07/26 04:50:15;;;;;;;13.18;3.67;;;18.60;58.70;;;;;;5055618;28;20957;-75
2022/07/26 04:52:41;;;;;;;14.60;3.70;;;18.70;58.50;;;;;;5056968;28;20405;-75
2022/07/26 04:55:08;;;;;;;16.00;3.60;;;18.70;59.00;;;;;;5063985;28;20412;-73
2022/07/26 04:57:34;;;;;;;10.35;3.70;;;18.70;58.80;;;;;;5055515;28;20411;-73
2022/07/26 05:00:00;;;;;;;8.57;3.13;;;18.70;58.70;;;;;;5054690;28;20738;-75
2022/07/26 05:02:26;;;;;;;13.50;3.97;;;18.70;59.10;;;;;;5054853;28;20392;-75
2022/07/26 05:04:51;;;;;;;16.65;3.60;;;18.80;58.40;;;;;;5054682;28;20492;-76
2022/07/26 05:07:17;;;;;;;19.00;3.90;;;18.80;57.50;;;;;;5055211;28;20726;-74
2022/07/26 05:09:42;;;;;;;13.30;3.80;;;18.80;57.80;;;;;;5056943;28;20819;-74
2022/07/26 05:12:08;;;;;;;13.83;4.00;;;18.80;57.90;;;;;;5074903;28;20396;-74
2022/07/26 05:14:36;;;;;;;13.07;3.85;;;18.80;58.00;;;;;;5079312;28;20388;-73
2022/07/26 05:17:02;;;;;;;19.30;3.78;;;18.80;58.30;;;;;;5078503;28;20380;-74
2022/07/26 05:19:27;;;;;;;11.52;3.40;;;18.90;58.10;;;;;;5072084;28;20412;-75
2022/07/26 05:21:53;;;;;;;11.55;3.50;;;19.00;56.30;;;;;;5056150;28;20389;-73
2022/07/26 05:24:19;;;;;;;9.13;3.20;;;19.10;56.60;;;;;;5053320;28;20389;-75
2022/07/26 05:26:44;;;;;;;17.23;3.90;;;19.10;55.80;;;;;;5054346;28;20877;-75
2022/07/26 05:29:10;;;;;;;15.07;4.03;;;19.10;55.80;;;;;;5054007;28;20559;-75
2022/07/26 05:31:35;;;;;;;18.53;4.00;;;19.10;55.90;;;;;;5052971;28;20397;-74
2022/07/26 05:34:02;;;;;;;15.57;3.90;;;19.10;56.00;;;;;;5053829;28;20415;-74
2022/07/26 05:36:28;;;;;;;15.25;4.70;;;19.10;56.40;;;;;;5051272;28;20405;-75
2022/07/26 05:38:54;;;;;;;15.85;4.20;;;19.10;56.60;;;;;;5051708;28;20396;-75
2022/07/26 05:41:19;;;;;;;15.38;3.67;;;19.20;55.70;;;;;;5053730;28;20477;-72
2022/07/26 05:43:45;;;;;;;13.35;3.60;;;19.30;54.50;;;;;;5053520;28;20397;-75
2022/07/26 05:46:11;;;;;;;12.60;3.90;;;19.40;53.70;;;;;;5069051;28;20407;-74
2022/07/26 05:48:40;;;;;;;16.15;4.28;;;19.40;53.70;;;;;;5057186;28;20395;-74
2022/07/26 05:51:06;;;;;;;13.18;3.80;;;19.40;54.00;;;;;;5063197;28;20416;-75
2022/07/26 05:53:32;;;;;;;15.45;3.90;;;19.40;53.70;;;;;;5056416;28;20801;-74
2022/07/26 05:55:57;;;;;;;12.60;4.20;;;19.50;53.70;;;;;;5053262;28;20407;-74
2022/07/26 05:58:23;;;;;;;21.65;4.40;;;19.60;54.40;;;;;;5054156;28;20408;-75
2022/07/26 06:00:49;;;;;;;15.87;4.10;;;19.70;53.40;;;;;;5061128;28;20385;-77
2022/07/26 06:03:24;;;;;;;14.90;4.50;;;20.00;50.00;;;;;;5068747;28;20447;-76
2022/07/26 06:05:52;;;;;;;14.82;3.60;;;20.10;49.30;;;;;;5072117;28;20516;-75
2022/07/26 06:08:18;;;;;;;19.67;4.60;;;20.00;49.80;;;;;;5057106;28;20719;-76
2022/07/26 06:10:45;;;;;;;21.30;4.40;;;19.90;50.40;;;;;;5054711;28;20434;-76
2022/07/26 06:13:11;;;;;;;16.50;5.00;;;19.90;51.20;;;;;;5063149;28;20902;-75
2022/07/26 06:15:37;;;;;;;14.10;4.50;;;19.90;51.60;;;;;;5052653;28;20405;-75
2022/07/26 06:18:04;;;;;;;12.48;4.30;;;19.90;51.60;;;;;;5052328;28;20377;-76
2022/07/26 06:20:30;;;;;;;15.45;5.22;;;20.10;49.80;;;;;;5076014;28;20408;-73
2022/07/26 06:22:57;;;;;;;17.27;5.70;;;20.20;49.10;;;;;;5071650;28;20421;-74
2022/07/26 06:25:23;;;;;;;19.48;4.40;;;20.20;48.90;;;;;;5082723;28;20483;-77
2022/07/26 06:27:49;;;;;;;15.10;4.50;;;20.20;48.40;;;;;;5053787;28;20753;-77
2022/07/26 06:30:14;;;;;;;17.10;6.30;;;20.20;48.70;;;;;;5052625;28;20455;-77
2022/07/26 06:32:43;;;;;;;18.67;4.50;;;20.20;50.10;;;;;;5052508;28;20477;-76
2022/07/26 06:35:09;;;;;;;12.97;4.20;;;20.20;49.80;;;;;;5052226;28;20913;-75
2022/07/26 06:37:39;;;;;;;14.20;4.07;;;20.30;48.50;;;;;;5052124;28;20400;-75
2022/07/26 06:40:06;;;;;;;15.73;5.13;;;20.40;47.60;;;;;;5052090;28;20528;-75
2022/07/26 06:42:32;;;;;;;15.48;4.20;;;20.50;47.90;;;;;;5052617;28;20384;-77
2022/07/26 06:44:58;;;;;;;19.02;4.70;;;20.60;47.10;;;;;;5050874;28;20906;-76
2022/07/26 06:47:24;;;;;;;14.70;3.60;;;20.60;46.80;;;;;;5053659;28;20435;-77
2022/07/26 06:49:50;;;;;;;22.30;5.00;;;20.70;46.70;;;;;;5053970;28;20385;-77
2022/07/26 06:52:15;;;;;;;14.57;4.80;;;20.90;44.60;;;;;;5051650;28;20394;-75
2022/07/26 06:54:41;;;;;;;14.43;4.60;;;21.00;43.50;;;;;;5053594;28;20397;-74
2022/07/26 06:57:07;;;;;;;16.33;4.70;;;21.00;44.20;;;;;;5053973;28;20424;-75
2022/07/26 06:59:32;;;;;;;20.87;4.60;;;21.00;43.90;;;;;;5052931;28;20424;-76
2022/07/26 07:01:58;;;;;;;17.08;4.70;;;21.10;43.50;;;;;;5052208;28;20385;-75
2022/07/26 07:04:23;;;;;;;18.43;4.43;;;21.20;43.30;;;;;;5053504;28;20393;-75
2022/07/26 07:06:49;;;;;;;22.30;5.40;;;21.30;42.10;;;;;;5053032;28;20409;-75
2022/07/26 07:09:14;;;;;;;17.88;5.55;;;21.40;41.20;;;;;;5050724;28;20424;-75
2022/07/26 07:11:41;;;;;;;18.40;5.10;;;21.30;41.00;;;;;;5051792;28;20416;-76
2022/07/26 07:14:07;;;;;;;15.43;5.15;;;21.30;41.60;;;;;;5052698;28;20387;-77
2022/07/26 07:16:33;;;;;;;16.25;5.60;;;21.40;41.30;;;;;;5050095;28;20381;-77
2022/07/26 07:18:58;;;;;;;15.93;4.77;;;21.50;40.40;;;;;;5052112;28;20385;-76
2022/07/26 07:21:24;;;;;;;19.17;5.00;;;21.40;40.30;;;;;;5053070;28;20469;-77
2022/07/26 07:23:49;;;;;;;18.83;5.20;;;21.40;41.10;;;;;;5052838;28;20500;-76
2022/07/26 07:26:15;;;;;;;21.60;6.10;;;21.30;41.80;;;;;;5051467;28;20523;-77
2022/07/26 07:28:41;;;;;;;16.85;5.38;;;21.50;42.20;;;;;;5054076;28;20397;-76
2022/07/26 07:31:06;;;;;;;15.63;5.30;;;21.90;40.60;;;;;;5051268;28;21025;-76
2022/07/26 07:33:32;;;;;;;17.13;4.85;;;22.30;37.70;;;;;;5051589;28;20417;-76
2022/07/26 07:35:57;;;;;;;15.85;5.30;;;22.40;35.90;;;;;;5050570;28;20397;-75
2022/07/26 07:38:23;;;;;;;15.90;5.10;;;22.20;36.10;;;;;;5050457;28;20393;-77
2022/07/26 07:40:49;;;;;;;17.35;5.90;;;22.10;37.50;;;;;;5051629;28;20389;-76
2022/07/26 07:43:15;;;;;;;12.02;5.00;;;22.00;38.20;;;;;;5051877;28;20385;-77
2022/07/26 07:45:40;;;;;;;17.00;4.93;;;22.10;37.30;;;;;;5053499;28;20897;-77
2022/07/26 07:48:06;;;;;;;14.77;5.50;;;22.20;36.80;;;;;;5052122;28;20383;-75
2022/07/26 07:50:32;;;;;;;16.10;5.30;;;22.50;35.50;;;;;;5053805;28;20377;-75
2022/07/26 07:52:57;;;;;;;21.83;5.70;;;22.60;34.60;;;;;;5064078;22;20438;-77
2022/07/26 07:55:23;;;;;;;18.23;4.80;;;22.60;35.40;;;;;;5033519;28;20442;-79
2022/07/26 07:57:48;;;;;;;13.48;4.60;;;22.60;34.70;;;;;;5050177;28;20387;-80
2022/07/26 08:00:17;;;;;;;12.73;5.13;;;22.50;35.10;;;;;;5045605;28;20415;-79
2022/07/26 08:02:43;;;;;;;16.00;5.85;;;22.40;35.80;;;;;;5036443;28;20448;-78
2022/07/26 08:05:09;;;;;;;14.55;4.85;;;22.40;35.70;;;;;;5034657;28;20978;-77
2022/07/26 08:07:35;;;;;;;13.52;5.20;;;22.20;35.70;;;;;;5033665;28;20441;-78
2022/07/26 08:10:00;;;;;;;17.17;6.25;;;22.10;37.70;;;;;;5016816;28;20403;-77
2022/07/26 08:12:26;;;;;;;16.37;7.10;;;21.80;39.20;;;;;;5031427;28;20391;-77
2022/07/26 08:14:51;;;;;;;21.13;5.85;;;21.70;39.00;;;;;;5030977;28;20399;-76
2022/07/26 08:17:17;;;;;;;13.63;4.60;;;21.80;38.90;;;;;;5030781;28;20385;-78
2022/07/26 08:19:42;;;;;;;15.60;5.47;;;22.10;37.00;;;;;;5030770;28;20414;-77
2022/07/26 08:22:09;;;;;;;11.77;4.78;;;22.30;36.70;;;;;;5033430;28;20386;-77
2022/07/26 08:24:34;;;;;;;16.20;5.57;;;22.50;35.90;;;;;;5034929;28;20394;-79
2022/07/26 08:27:00;;;;;;;14.15;5.30;;;22.60;34.90;;;;;;5034563;28;20379;-77
2022/07/26 08:29:25;;;;;;;18.17;4.40;;;22.80;33.70;;;;;;5016433;28;20891;-77
2022/07/26 08:31:51;;;;;;;12.82;4.55;;;22.90;33.40;;;;;;5034119;28;20417;-77
2022/07/26 08:34:17;;;;;;;17.33;5.30;;;23.10;32.60;;;;;;5034281;28;20891;-77
2022/07/26 08:36:43;;;;;;;14.77;5.40;;;23.00;33.00;;;;;;5033839;28;20387;-77
2022/07/26 08:39:09;;;;;;;14.50;5.43;;;23.00;33.00;;;;;;5034179;28;20399;-76
2022/07/26 08:41:35;;;;;;;11.93;4.80;;;23.10;32.50;;;;;;5034255;28;20387;-78
2022/07/26 08:44:09;;;;;;;11.37;4.60;;;23.20;31.40;;;;;;5034081;28;20783;-78
2022/07/26 08:46:36;;;;;;;13.80;5.32;;;23.40;30.10;;;;;;5034352;28;20831;-78
2022/07/26 08:49:03;;;;;;;14.77;4.70;;;23.40;30.80;;;;;;5034030;28;20387;-77
2022/07/26 08:51:30;;;;;;;15.63;5.13;;;23.50;29.00;;;;;;5034494;28;20876;-76
2022/07/26 08:53:58;;;;;;;11.07;4.65;;;23.50;28.90;;;;;;5039197;28;20513;-77
2022/07/26 08:56:23;;;;;;;10.55;5.25;;;23.30;29.70;;;;;;5018489;28;20763;-78
2022/07/26 08:58:49;;;;;;;11.33;4.90;;;23.40;29.50;;;;;;5033487;28;20399;-77
2022/07/26 09:01:14;;;;;;;11.52;4.90;;;23.80;28.50;;;;;;5033104;28;20383;-77
2022/07/26 09:03:42;;;;;;;13.95;5.15;;;23.70;28.80;;;;;;5033523;28;20379;-78
2022/07/26 09:06:10;;;;;;;20.63;5.50;;;23.80;29.10;;;;;;5033226;28;20414;-78
2022/07/26 09:08:36;;;;;;;14.00;5.30;;;24.10;27.00;;;;;;5034041;28;20448;-77
2022/07/26 09:11:02;;;;;;;8.33;4.23;;;24.40;23.10;;;;;;5034351;28;20391;-76
2022/07/26 09:13:48;;;;;;;8.07;4.80;;;24.50;21.90;;;;;;5015518;28;20926;-78
2022/07/26 09:16:14;;;;;;;12.60;5.32;;;24.60;20.90;;;;;;5026592;28;20415;-77
2022/07/26 09:18:39;;;;;;;10.20;4.65;;;24.70;20.40;;;;;;5033414;28;20434;-76
2022/07/26 09:21:05;;;;;;;11.67;4.10;;;24.90;20.10;;;;;;5033368;28;20390;-77
2022/07/26 09:23:40;;;;;;;15.60;5.20;;;25.10;20.00;;;;;;5016106;28;20895;-76
2022/07/26 09:26:06;;;;;;;9.05;4.60;;;25.00;20.00;;;;;;5033513;28;20403;-78
2022/07/26 09:28:31;;;;;;;8.97;5.10;;;24.90;20.30;;;;;;5033616;28;20795;-77
2022/07/26 09:31:02;;;;;;;12.57;4.43;;;24.90;20.00;;;;;;5033372;28;20814;-79
2022/07/26 09:33:50;;;;;;;11.23;4.97;;;24.50;21.50;;;;;;5015577;28;20406;-76
2022/07/26 09:36:16;;;;;;;9.65;5.03;;;23.80;24.10;;;;;;5033871;28;20402;-77
2022/07/26 09:38:46;;;;;;;9.68;5.72;;;23.50;24.70;;;;;;5033501;28;20903;-78
2022/07/26 09:41:22;;;;;;;10.35;5.80;;;23.20;25.30;;;;;;5032914;28;20394;-78
2022/07/26 09:43:49;;;;;;;14.45;5.78;;;23.20;25.90;;;;;;5032813;28;20782;-78
2022/07/26 09:46:15;;;;;;;12.73;6.82;;;23.10;26.10;;;;;;5033710;28;20410;-78
2022/07/26 09:48:42;;;;;;;13.30;5.22;;;22.90;26.20;;;;;;5033680;28;20383;-77
2022/07/26 09:51:09;;;;;;;9.90;4.80;;;22.80;26.10;;;;;;5033583;28;20899;-77
2022/07/26 09:53:45;;;;;;;9.35;4.78;;;23.20;26.40;;;;;;5033287;28;20399;-78
2022/07/26 09:56:12;;;;;;;7.20;4.50;;;23.50;24.50;;;;;;5034030;28;20379;-79
2022/07/26 09:58:38;;;;;;;10.43;4.38;;;23.60;24.00;;;;;;5039955;28;20976;-78
2022/07/26 10:01:05;;;;;;;9.23;3.80;;;23.60;24.00;;;;;;5050841;28;20391;-77
2022/07/26 10:03:31;;;;;;;6.15;3.80;;;23.40;24.80;;;;;;5053280;28;20748;-77
2022/07/26 10:05:58;;;;;;;10.48;3.40;;;23.30;24.50;;;;;;5044129;28;20411;-77
2022/07/26 10:08:24;;;;;;;14.75;4.10;;;23.30;23.70;;;;;;5016823;28;20387;-77
2022/07/26 10:11:05;;;;;;;8.65;3.33;;;23.40;24.10;;;;;;5033148;28;20426;-78
2022/07/26 10:13:31;;;;;;;7.05;3.00;;;23.70;21.90;;;;;;5034046;28;20391;-78
2022/07/26 10:15:57;;;;;;;10.88;3.42;;;24.10;20.00;;;;;;5034376;28;20395;-78
2022/07/26 10:18:35;;;;;;;5.88;2.80;;;24.20;19.90;;;;;;5036352;28;20418;-77
2022/07/26 10:21:20;;;;;;;9.32;2.70;;;24.30;18.50;;;;;;5033786;28;20387;-77
2022/07/26 10:23:57;;;;;;;3.97;2.20;;;24.40;18.20;;;;;;5016501;28;20390;-78
2022/07/26 10:26:31;;;;;;;4.60;2.40;;;24.40;18.10;;;;;;5034148;28;21051;-77
2022/07/26 10:29:15;;;;;;;5.03;2.60;;;24.70;17.50;;;;;;5034249;28;20383;-78
2022/07/26 10:31:42;;;;;;;5.60;2.90;;;25.00;16.90;;;;;;5033042;28;20906;-77
2022/07/26 10:34:08;;;;;;;6.18;3.22;;;24.80;17.80;;;;;;5033519;28;20389;-77
2022/07/26 10:36:38;;;;;;;7.88;3.00;;;24.60;18.60;;;;;;5033612;28;20653;-77
2022/07/26 10:39:13;;;;;;;8.65;2.90;;;24.60;19.20;;;;;;5033166;28;20540;-77
2022/07/26 10:41:44;;;;;;;8.98;3.17;;;24.90;17.90;;;;;;5032744;28;20403;-77
2022/07/26 10:44:14;;;;;;;7.65;2.95;;;24.90;18.50;;;;;;5035233;28;20387;-77
2022/07/26 10:47:01;;;;;;;9.55;3.80;;;25.00;19.00;;;;;;5034848;28;20426;-77
2022/07/26 10:49:38;;;;;;;5.45;2.78;;;25.20;17.20;;;;;;5033276;28;20470;-77
2022/07/26 10:52:09;;;;;;;9.05;3.13;;;25.50;16.60;;;;;;5032387;28;20461;-76
2022/07/26 10:54:59;;;;;;;7.00;2.47;;;25.60;15.80;;;;;;5033951;28;20384;-77
2022/07/26 10:57:30;;;;;;;3.47;2.53;;;24.90;18.90;;;;;;5033189;28;20379;-77
2022/07/26 10:59:57;;;;;;;7.50;2.83;;;23.90;22.70;;;;;;5032600;28;20481;-77
2022/07/26 11:02:26;;;;;;;4.85;2.72;;;22.70;27.50;;;;;;5031388;28;20387;-78
2022/07/26 11:05:03;;;;;;;6.00;2.50;;;22.10;31.30;;;;;;5031917;28;20439;-77
2022/07/26 11:07:29;;;;;;;5.43;2.47;;;21.50;34.30;;;;;;5032740;28;20379;-77
2022/07/26 11:10:00;;;;;;;8.25;4.00;;;20.70;45.40;;;;;;5032852;28;20768;-77
2022/07/26 11:12:26;;;;;;;10.63;4.10;;;20.40;55.80;;;;;;5032411;28;20423;-77
2022/07/26 11:14:53;;;;;;;8.98;3.70;;;20.50;53.00;;;;;;5031211;28;20394;-77
2022/07/26 11:17:28;;;;;;;5.37;3.10;;;20.60;49.60;;;;;;5031642;28;20482;-77
2022/07/26 11:19:55;;;;;;;9.85;3.85;;;20.70;46.30;;;;;;5031298;28;20378;-77
2022/07/26 11:22:21;;;;;;;7.05;2.75;;;20.90;45.70;;;;;;5031493;28;20395;-77
2022/07/26 11:24:47;;;;;;;4.10;2.75;;;21.10;43.00;;;;;;5031607;28;20415;-78
2022/07/26 11:27:13;;;;;;;6.80;2.87;;;21.00;42.80;;;;;;5013947;28;20387;-76
2022/07/26 11:29:39;;;;;;;6.50;3.00;;;21.10;42.10;;;;;;5031631;28;20406;-77
2022/07/26 11:32:13;;;;;;;5.30;2.30;;;21.20;42.10;;;;;;5031526;28;20537;-77
2022/07/26 11:34:39;;;;;;;4.60;1.80;;;21.50;38.60;;;;;;5033921;28;20383;-77
2022/07/26 11:37:05;;;;;;;6.07;1.80;;;21.70;37.10;;;;;;5020976;28;20499;-75
2022/07/26 11:39:34;;;;;;;7.88;2.25;;;22.00;35.90;;;;;;5036646;28;20390;-77
2022/07/26 11:42:03;;;;;;;3.75;1.50;;;22.40;34.90;;;;;;5036518;28;20387;-78
2022/07/26 11:44:29;;;;;;;3.13;1.70;;;22.70;32.80;;;;;;5036185;28;20383;-78
2022/07/26 11:46:56;;;;;;;5.75;2.00;;;22.90;30.50;;;;;;5035201;28;20417;-77
2022/07/26 11:49:28;;;;;;;2.47;1.30;;;23.00;29.60;;;;;;5031958;28;20394;-76
2022/07/26 11:51:55;;;;;;;1.85;1.40;;;22.70;29.60;;;;;;5031388;28;20379;-77
2022/07/26 11:54:30;;;;;;;3.40;1.70;;;22.50;30.20;;;;;;5032730;28;20383;-78
2022/07/26 11:57:02;;;;;;;2.30;1.63;;;22.60;30.60;;;;;;5034776;28;20379;-77
2022/07/26 11:59:29;;;;;;;2.13;1.35;;;22.70;30.70;;;;;;5035283;28;20387;-77
2022/07/26 12:01:56;;;;;;;2.40;1.70;;;23.00;29.40;;;;;;5035352;28;20402;-78
2022/07/26 12:04:28;;;;;;;3.90;1.77;;;23.00;28.40;;;;;;5037039;28;20812;-77
2022/07/26 12:06:55;;;;;;;2.97;1.40;;;23.00;27.20;;;;;;5036171;28;20387;-78
2022/07/26 12:09:35;;;;;;;2.53;1.70;;;22.90;27.30;;;;;;5035321;28;20429;-78
2022/07/26 12:12:07;;;;;;;2.15;1.50;;;23.20;26.00;;;;;;5017296;28;20425;-77
2022/07/26 12:14:38;;;;;;;4.13;1.50;;;23.30;24.90;;;;;;5036588;28;20409;-78
2022/07/26 12:17:14;;;;;;;3.80;1.40;;;23.10;24.20;;;;;;5035657;28;20899;-78
2022/07/26 12:19:40;;;;;;;2.53;1.40;;;23.20;24.60;;;;;;5035585;28;20379;-78
2022/07/26 12:22:21;;;;;;;2.05;1.55;;;23.40;23.90;;;;;;5017139;28;20479;-78
2022/07/26 12:24:58;;;;;;;4.80;1.40;;;23.80;23.30;;;;;;5017074;28;20490;-78
2022/07/26 12:27:27;;;;;;;3.10;1.33;;;24.40;22.60;;;;;;5034742;28;20379;-78
2022/07/26 12:30:02;;;;;;;3.90;1.40;;;24.40;21.10;;;;;;5034541;28;20379;-78
2022/07/26 12:32:34;;;;;;;3.40;1.37;;;24.40;21.40;;;;;;5035090;28;20379;-78
2022/07/26 12:35:07;;;;;;;2.50;1.55;;;24.40;20.50;;;;;;5034692;28;20495;-77
2022/07/26 12:37:36;;;;;;;5.45;1.70;;;24.50;20.70;;;;;;5034482;28;20410;-78
2022/07/26 12:40:04;;;;;;;2.85;1.67;;;24.50;20.70;;;;;;5036171;28;20387;-78
2022/07/26 12:42:57;;;;;;;3.05;1.70;;;24.30;20.50;;;;;;5034914;28;20395;-77
2022/07/26 12:45:33;;;;;;;2.08;1.52;;;24.40;20.00;;;;;;5033705;28;20418;-77
2022/07/26 12:48:01;;;;;;;2.20;1.10;;;24.80;19.50;;;;;;5035140;28;20391;-78